Terminal Aerodrome Forecast
Issued by NWS Shreveport, LA

Home | Current Version | Previous Version | Text Only | Print | Product List | Glossary On
Versions: 1 2 3 4 5 6 7 8 9 10 11 12 13
000
FTUS44 KSHV 222327
TAFTXK
TAF
KTXK 222327Z 2300/2324 13003KT P6SM SKC
      TEMPO 2310/2313 5SM BR
     FM231300 09003KT P6SM SKC
     FM231500 10005KT P6SM SCT025
     FM231800 10006KT P6SM SCT040=

USA.gov is the U.S. government's official web portal to all federal, state and local government web resources and services.